Time;durP1;ratioP1;P1;durP2;ratioP2;P2;SDS_P1;SDS_P2;PMS_P1;PMS_P2;Temp;Humidity;BMP_temperature;BMP_pressure;BME280_temperature;BME280_humidity;BME280_pressure;Samples;Min_cycle;Max_cycle;Signal;HPM_P1;HPM_P2
2022/08/11 00:00:07;;;;;;;3.10;2.80;;;21.30;90.60;;;;;;5098024;28;20423;-38
2022/08/11 00:02:40;;;;;;;4.00;2.67;;;21.30;91.00;;;;;;5095977;28;20413;-38
2022/08/11 00:05:09;;;;;;;3.90;2.57;;;21.10;91.60;;;;;;5099259;28;20440;-38
2022/08/11 00:07:48;;;;;;;5.20;2.87;;;21.00;91.60;;;;;;5088953;28;20473;-38
2022/08/11 00:10:17;;;;;;;2.80;2.60;;;21.00;91.80;;;;;;5089387;28;20430;-38
2022/08/11 00:12:49;;;;;;;2.40;2.20;;;21.00;92.00;;;;;;5089481;28;20468;-38
2022/08/11 00:15:14;;;;;;;2.87;2.33;;;20.90;92.00;;;;;;5089324;28;20426;-38
2022/08/11 00:17:41;;;;;;;3.00;2.70;;;21.00;92.30;;;;;;5089102;28;20428;-38
2022/08/11 00:20:13;;;;;;;4.00;2.87;;;21.00;92.30;;;;;;5087865;28;20220;-38
2022/08/11 00:22:42;;;;;;;2.63;2.30;;;20.90;92.40;;;;;;5089497;28;20438;-38
2022/08/11 00:25:18;;;;;;;3.20;2.67;;;21.00;92.40;;;;;;5087895;28;20430;-38
2022/08/11 00:27:46;;;;;;;2.80;2.60;;;20.90;92.70;;;;;;5088981;28;20816;-38
2022/08/11 00:30:13;;;;;;;3.20;2.90;;;20.90;92.90;;;;;;5089289;28;20418;-38
2022/08/11 00:32:51;;;;;;;5.13;2.93;;;20.80;92.90;;;;;;5089181;28;20818;-38
2022/08/11 00:35:22;;;;;;;4.10;2.83;;;20.80;93.30;;;;;;5087981;28;20461;-38
2022/08/11 00:37:51;;;;;;;4.03;3.00;;;20.80;93.20;;;;;;5095650;28;20426;-35
2022/08/11 00:40:41;;;;;;;3.10;2.90;;;20.70;93.50;;;;;;5097684;28;20915;-35
2022/08/11 00:43:23;;;;;;;3.77;3.13;;;20.60;93.90;;;;;;5062959;28;20434;-36
2022/08/11 00:46:13;;;;;;;3.67;2.93;;;20.60;94.10;;;;;;5084482;28;20485;-35
2022/08/11 00:48:58;;;;;;;5.57;3.23;;;20.60;94.40;;;;;;5087285;28;20434;-35
2022/08/11 00:51:55;;;;;;;2.70;2.50;;;20.50;94.80;;;;;;5089222;28;20517;-35
2022/08/11 00:54:47;;;;;;;5.00;2.87;;;20.40;95.20;;;;;;5089088;28;20423;-36
2022/08/11 00:57:34;;;;;;;3.50;2.53;;;20.30;95.60;;;;;;5071235;28;20477;-35
2022/08/11 01:00:22;;;;;;;3.03;2.83;;;20.20;95.90;;;;;;5088919;28;20472;-39
2022/08/11 01:03:16;;;;;;;3.00;2.53;;;20.20;96.10;;;;;;5089109;28;20497;-38
2022/08/11 01:06:20;;;;;;;4.33;3.00;;;20.20;96.30;;;;;;5088919;28;20476;-38
2022/08/11 01:09:17;;;;;;;5.00;2.50;;;20.10;96.20;;;;;;5088468;28;20458;-38
2022/08/11 01:12:11;;;;;;;5.80;2.90;;;20.10;96.40;;;;;;5080412;28;20426;-38
2022/08/11 01:14:57;;;;;;;3.20;2.40;;;20.10;96.60;;;;;;5088567;28;20816;-38
2022/08/11 01:17:44;;;;;;;5.67;2.50;;;20.10;96.60;;;;;;5096379;28;20476;-38
2022/08/11 01:20:35;;;;;;;5.60;2.83;;;20.00;96.90;;;;;;5099014;28;20429;-38
2022/08/11 01:23:33;;;;;;;3.27;2.70;;;20.00;96.90;;;;;;5096193;28;20442;-38
2022/08/11 01:26:17;;;;;;;5.73;3.23;;;20.00;97.10;;;;;;5096042;28;20422;-37
2022/08/11 01:29:01;;;;;;;6.43;2.90;;;20.00;97.20;;;;;;5091805;28;20948;-38
2022/08/11 01:32:07;;;;;;;3.40;3.10;;;20.10;96.90;;;;;;5092268;28;20920;-38
2022/08/11 01:34:58;;;;;;;3.23;2.83;;;20.10;96.80;;;;;;5092112;28;20415;-38
2022/08/11 01:37:30;;;;;;;3.60;2.50;;;20.00;97.40;;;;;;5091206;28;20583;-39
2022/08/11 01:40:19;;;;;;;3.53;2.90;;;19.90;98.10;;;;;;5099681;28;20901;-38
2022/08/11 01:46:04;;;;;;;3.57;3.03;;;19.70;99.00;;;;;;5090294;28;20430;-38
2022/08/11 01:48:30;;;;;;;3.37;3.07;;;19.70;99.20;;;;;;5091345;28;20418;-38
2022/08/11 01:51:21;;;;;;;5.07;3.17;;;19.50;99.50;;;;;;5091777;28;20475;-38
2022/08/11 01:54:14;;;;;;;3.67;3.37;;;19.40;99.90;;;;;;5091889;28;20417;-38
2022/08/11 01:57:05;;;;;;;4.80;2.60;;;19.30;99.90;;;;;;5090969;28;20912;-38
2022/08/11 01:59:47;;;;;;;3.87;2.63;;;19.20;99.90;;;;;;5087404;28;20406;-38
2022/08/11 02:05:46;;;;;;;2.80;2.60;;;19.00;99.90;;;;;;5091471;28;20448;-38
2022/08/11 02:08:33;;;;;;;3.90;2.90;;;19.00;99.90;;;;;;5090775;28;20477;-38
2022/08/11 02:11:37;;;;;;;3.60;3.03;;;18.90;99.90;;;;;;5091771;28;20895;-38
2022/08/11 02:14:15;;;;;;;2.93;2.67;;;18.80;99.90;;;;;;5075911;28;21058;-37
2022/08/11 02:16:52;;;;;;;3.50;3.20;;;18.70;99.90;;;;;;5100731;28;20515;-35
2022/08/11 02:25:57;;;;;;;5.77;3.50;;;18.60;99.90;;;;;;5090019;28;21232;-38
2022/08/11 02:28:33;;;;;;;3.33;2.60;;;18.60;99.90;;;;;;5090488;28;20430;-38
2022/08/11 02:33:55;;;;;;;4.60;3.40;;;18.60;99.90;;;;;;5091007;28;20480;-38
2022/08/11 02:36:31;;;;;;;3.30;3.00;;;18.70;99.90;;;;;;5091130;28;21029;-37
2022/08/11 02:39:08;;;;;;;3.40;3.10;;;18.70;99.90;;;;;;5090822;28;20433;-37
2022/08/11 02:42:24;;;;;;;6.10;3.83;;;18.80;99.90;;;;;;5090927;28;20413;-38
2022/08/11 02:45:10;;;;;;;3.83;3.43;;;18.90;99.90;;;;;;5088450;28;20422;-38
2022/08/11 02:49:52;;;;;;;3.43;3.13;;;18.90;99.90;;;;;;5090251;28;20426;-38
2022/08/11 02:50:38;;;;;;;3.93;3.23;;;19.00;99.90;;;;;;5090067;28;20426;-38
2022/08/11 02:53:20;;;;;;;4.20;3.63;;;19.00;99.90;;;;;;5090938;28;21006;-38
2022/08/11 02:56:01;;;;;;;5.33;3.20;;;19.00;99.90;;;;;;5090514;28;20489;-38
2022/08/11 03:02:26;;;;;;;4.63;3.33;;;19.00;99.90;;;;;;5090589;28;20422;-38
2022/08/11 03:05:16;;;;;;;6.30;3.70;;;19.10;99.90;;;;;;5090257;28;20487;-38
2022/08/11 03:08:11;;;;;;;6.27;3.90;;;19.10;99.90;;;;;;5090093;28;20427;-38
2022/08/11 03:17:32;;;;;;;4.30;3.37;;;19.10;99.90;;;;;;5089457;28;20461;-38
2022/08/11 03:20:29;;;;;;;6.67;4.27;;;19.10;99.90;;;;;;5089347;28;20762;-38
2022/08/11 03:23:29;;;;;;;4.30;3.60;;;19.10;99.90;;;;;;5090003;28;20442;-38
2022/08/11 03:26:00;;;;;;;5.07;3.87;;;19.00;99.90;;;;;;5087793;28;20528;-38
2022/08/11 03:28:55;;;;;;;3.67;3.37;;;19.00;99.90;;;;;;5089552;28;20479;-37
2022/08/11 03:31:45;;;;;;;7.30;3.60;;;18.90;99.90;;;;;;5089950;28;20480;-38
2022/08/11 03:34:38;;;;;;;4.43;3.13;;;18.90;99.90;;;;;;5089709;28;20433;-38
2022/08/11 03:37:49;;;;;;;4.97;3.97;;;18.80;99.90;;;;;;5087318;28;20478;-38
2022/08/11 03:43:25;;;;;;;6.00;3.70;;;18.70;99.90;;;;;;5089610;28;20414;-38
2022/08/11 03:45:56;;;;;;;4.23;3.70;;;18.70;99.90;;;;;;5089922;28;20433;-37
2022/08/11 03:48:46;;;;;;;5.00;3.83;;;18.60;99.90;;;;;;5089071;28;20460;-38
2022/08/11 03:51:38;;;;;;;4.63;3.50;;;18.50;99.90;;;;;;5089814;28;20425;-38
2022/08/11 03:54:27;;;;;;;4.63;3.83;;;18.40;99.90;;;;;;5089650;28;20438;-37
2022/08/11 03:56:59;;;;;;;5.20;3.60;;;18.40;99.90;;;;;;5089002;28;20469;-38
2022/08/11 03:59:46;;;;;;;4.23;3.80;;;18.40;99.90;;;;;;5089656;28;20421;-38
2022/08/11 04:02:23;;;;;;;4.30;3.60;;;18.30;99.90;;;;;;5089506;28;20430;-38
2022/08/11 04:05:15;;;;;;;6.20;4.23;;;18.20;99.90;;;;;;5089472;28;20442;-38
2022/08/11 04:08:15;;;;;;;3.57;3.27;;;18.20;99.90;;;;;;5088923;28;20423;-38
2022/08/11 04:10:57;;;;;;;4.00;3.70;;;18.00;99.90;;;;;;5089500;28;21007;-37
2022/08/11 04:15:58;;;;;;;5.03;3.73;;;17.90;99.90;;;;;;5090062;28;20429;-38
2022/08/11 04:16:58;;;;;;;6.03;3.87;;;17.90;99.90;;;;;;5090836;28;20466;-38
2022/08/11 04:19:35;;;;;;;4.27;3.87;;;17.70;99.90;;;;;;5107520;28;20425;-37
2022/08/11 04:22:10;;;;;;;3.70;3.40;;;17.70;99.90;;;;;;5078754;28;20446;-38
2022/08/11 04:24:47;;;;;;;4.27;3.90;;;17.70;99.90;;;;;;5092760;28;20424;-38
2022/08/11 04:27:34;;;;;;;4.20;3.80;;;17.70;99.90;;;;;;5107313;28;20424;-37
2022/08/11 04:30:13;;;;;;;7.63;3.80;;;17.70;99.90;;;;;;5089524;28;20797;-37
2022/08/11 04:32:57;;;;;;;6.23;3.50;;;17.60;99.90;;;;;;5089230;28;20426;-38
2022/08/11 04:35:48;;;;;;;3.80;3.50;;;17.60;99.90;;;;;;5098044;28;20410;-38
2022/08/11 04:38:33;;;;;;;5.37;3.90;;;17.60;99.90;;;;;;5094204;28;20428;-38
2022/08/11 04:41:13;;;;;;;4.50;3.60;;;17.60;99.90;;;;;;5097622;28;20497;-37
2022/08/11 04:44:13;;;;;;;4.40;4.00;;;17.50;99.90;;;;;;5084263;28;20444;-38
2022/08/11 04:47:09;;;;;;;4.70;4.10;;;17.50;99.90;;;;;;5090735;28;20517;-38
2022/08/11 05:02:43;;;;;;;5.27;3.87;;;17.60;99.90;;;;;;5094680;28;20512;-37
2022/08/11 05:05:51;;;;;;;4.20;3.80;;;17.60;99.90;;;;;;5097072;28;20438;-37
2022/08/11 05:08:49;;;;;;;6.40;3.80;;;17.60;99.90;;;;;;5092053;28;20513;-38
2022/08/11 05:11:23;;;;;;;6.17;4.10;;;17.60;99.90;;;;;;5091460;28;20923;-37
2022/08/11 05:37:21;;;;;;;5.00;3.43;;;18.60;99.90;;;;;;5091312;28;20485;-37
2022/08/11 05:57:00;;;;;;;4.90;4.30;;;19.20;99.90;;;;;;5091421;28;20587;-38
2022/08/11 05:59:27;;;;;;;6.70;4.77;;;19.40;99.90;;;;;;5080229;28;20422;-37
2022/08/11 06:01:58;;;;;;;4.83;4.43;;;19.60;99.90;;;;;;5091150;28;20479;-38
2022/08/11 06:04:25;;;;;;;6.10;4.00;;;19.80;99.90;;;;;;5090371;28;20477;-37
2022/08/11 06:06:57;;;;;;;6.83;4.23;;;20.00;99.90;;;;;;5090809;28;20446;-38
2022/08/11 06:09:45;;;;;;;6.20;4.33;;;20.20;99.90;;;;;;5092876;28;20438;-38
2022/08/11 06:12:32;;;;;;;5.50;4.67;;;20.40;99.90;;;;;;5100114;28;20490;-38
2022/08/11 06:15:04;;;;;;;5.00;4.50;;;20.60;99.90;;;;;;5090298;28;20426;-37
2022/08/11 06:17:32;;;;;;;4.43;4.03;;;20.70;99.90;;;;;;5089027;28;20548;-38
2022/08/11 06:20:11;;;;;;;4.80;4.27;;;20.90;99.90;;;;;;5093919;28;20496;-38
2022/08/11 06:22:54;;;;;;;4.30;4.00;;;21.00;99.90;;;;;;5093099;27;20451;-38
2022/08/11 06:25:21;;;;;;;5.07;4.23;;;21.20;99.90;;;;;;5098899;28;20427;-38
2022/08/11 06:27:55;;;;;;;5.50;4.83;;;21.40;99.90;;;;;;5095883;28;20440;-38
2022/08/11 06:30:33;;;;;;;6.70;4.40;;;21.50;99.90;;;;;;5091262;28;20427;-38
2022/08/11 06:33:03;;;;;;;5.37;4.80;;;21.60;99.90;;;;;;5090887;28;20433;-38
2022/08/11 06:35:37;;;;;;;4.83;4.43;;;21.60;99.90;;;;;;5078057;28;20443;-38
2022/08/11 06:38:14;;;;;;;5.33;4.50;;;21.70;99.90;;;;;;5085211;28;20530;-38
2022/08/11 06:43:51;;;;;;;5.50;4.40;;;22.00;99.90;;;;;;5088761;28;20454;-38
2022/08/11 06:46:30;;;;;;;5.50;4.93;;;22.20;99.70;;;;;;5076565;28;20434;-38
2022/08/11 06:48:57;;;;;;;5.47;4.70;;;22.30;99.20;;;;;;5090617;28;20792;-38
2022/08/11 06:51:23;;;;;;;7.13;4.63;;;22.40;99.10;;;;;;5090895;28;20431;-38
2022/08/11 06:54:02;;;;;;;5.07;4.53;;;22.50;97.40;;;;;;5090696;28;20449;-38
2022/08/11 07:02:10;;;;;;;5.10;4.60;;;23.10;95.80;;;;;;5090073;28;20475;-38
2022/08/11 07:04:44;;;;;;;5.50;4.67;;;23.20;94.80;;;;;;5090034;28;20976;-38
2022/08/11 07:16:43;;;;;;;4.90;4.43;;;23.80;94.80;;;;;;5089671;28;20462;-38
2022/08/11 07:30:28;;;;;;;5.00;4.50;;;24.00;93.40;;;;;;5088710;28;20430;-38
2022/08/11 07:32:58;;;;;;;5.87;4.60;;;24.10;93.30;;;;;;5089834;28;20479;-38
2022/08/11 07:35:32;;;;;;;7.40;4.60;;;24.20;92.90;;;;;;5089932;28;20423;-38
2022/08/11 07:38:02;;;;;;;5.20;4.10;;;24.30;93.30;;;;;;5089059;28;20421;-38
2022/08/11 07:40:28;;;;;;;6.00;4.27;;;24.30;92.80;;;;;;5089936;28;20449;-38
2022/08/11 07:42:55;;;;;;;5.53;5.03;;;24.40;92.80;;;;;;5085094;28;20910;-38
2022/08/11 07:53:38;;;;;;;6.27;4.40;;;24.60;91.60;;;;;;5089526;28;20450;-38
2022/08/11 07:56:06;;;;;;;5.63;4.37;;;24.70;90.90;;;;;;5089706;28;20462;-38
2022/08/11 08:17:58;;;;;;;5.17;4.50;;;24.60;90.90;;;;;;5088834;28;20556;-38
2022/08/11 08:20:30;;;;;;;6.83;4.33;;;24.60;90.70;;;;;;5088524;28;20445;-36
2022/08/11 08:22:59;;;;;;;4.83;4.33;;;24.70;91.50;;;;;;5089221;28;20531;-35
2022/08/11 08:25:35;;;;;;;5.53;5.13;;;24.70;91.30;;;;;;5090741;28;20406;-36
2022/08/11 08:28:06;;;;;;;7.00;4.47;;;24.70;91.20;;;;;;5092738;28;20418;-36
2022/08/11 08:30:47;;;;;;;7.60;4.60;;;24.70;90.90;;;;;;5093277;28;20453;-36
2022/08/11 08:33:27;;;;;;;8.00;5.20;;;24.70;91.50;;;;;;5093444;28;20479;-36
2022/08/11 08:36:10;;;;;;;5.57;5.07;;;24.80;91.10;;;;;;5093243;28;20462;-37
2022/08/11 08:38:38;;;;;;;5.57;5.07;;;24.80;89.00;;;;;;5092911;28;20426;-36
2022/08/11 08:41:05;;;;;;;5.40;4.70;;;24.90;88.70;;;;;;5093078;28;20422;-36
2022/08/11 08:43:32;;;;;;;5.50;4.17;;;24.90;85.90;;;;;;5091853;28;20422;-36
2022/08/11 08:45:58;;;;;;;4.93;4.20;;;25.00;86.90;;;;;;5093132;28;20429;-36
2022/08/11 08:48:28;;;;;;;5.00;4.50;;;25.00;88.90;;;;;;5092488;28;20452;-36
2022/08/11 08:53:51;;;;;;;6.27;5.03;;;25.20;88.00;;;;;;5093058;28;20469;-35
2022/08/11 08:56:19;;;;;;;5.77;4.40;;;25.30;86.90;;;;;;5092902;28;20465;-36
2022/08/11 08:58:47;;;;;;;4.30;4.00;;;25.30;89.20;;;;;;5092276;28;20434;-36
2022/08/11 09:01:15;;;;;;;4.80;4.40;;;25.40;89.50;;;;;;5092551;28;21113;-36
2022/08/11 09:03:42;;;;;;;5.10;4.60;;;25.40;85.20;;;;;;5092972;28;20440;-36
2022/08/11 09:06:08;;;;;;;9.03;4.70;;;25.50;83.50;;;;;;5091439;28;20886;-36
2022/08/11 09:08:35;;;;;;;5.73;4.87;;;25.50;84.20;;;;;;5091997;28;20411;-36
2022/08/11 09:13:48;;;;;;;4.93;4.53;;;25.70;85.70;;;;;;5092293;28;20422;-36
2022/08/11 09:16:15;;;;;;;7.63;4.97;;;25.90;83.90;;;;;;5092554;28;20477;-36
2022/08/11 09:18:44;;;;;;;7.23;4.57;;;26.00;84.80;;;;;;5091755;28;20433;-37
2022/08/11 09:21:15;;;;;;;5.20;4.63;;;26.10;87.00;;;;;;5091252;28;20422;-36
2022/08/11 09:29:13;;;;;;;4.30;4.00;;;26.40;77.70;;;;;;5092339;28;20421;-38
2022/08/11 09:31:39;;;;;;;5.70;4.57;;;26.40;78.90;;;;;;5092446;28;20848;-38
2022/08/11 09:34:05;;;;;;;4.60;4.30;;;26.50;81.60;;;;;;5092345;28;20426;-39
2022/08/11 09:42:03;;;;;;;4.70;4.17;;;27.00;79.30;;;;;;5092121;28;20415;-38
2022/08/11 09:44:49;;;;;;;4.40;4.00;;;27.20;75.00;;;;;;5092034;28;20445;-39
2022/08/11 09:47:27;;;;;;;4.97;3.77;;;27.30;73.90;;;;;;5091592;28;20817;-39
2022/08/11 09:49:58;;;;;;;4.60;3.67;;;27.50;68.30;;;;;;5090794;28;20418;-38
2022/08/11 09:52:25;;;;;;;3.80;3.50;;;27.60;68.90;;;;;;5091926;28;20467;-38
2022/08/11 09:54:52;;;;;;;7.07;4.60;;;27.70;69.20;;;;;;5091927;28;20437;-38
2022/08/11 10:00:07;;;;;;;6.63;4.20;;;27.80;71.30;;;;;;5091921;28;20536;-38
2022/08/11 10:02:38;;;;;;;5.30;4.70;;;28.00;71.70;;;;;;5091656;28;20423;-36
2022/08/11 10:07:51;;;;;;;5.20;4.40;;;28.20;71.90;;;;;;5089437;28;20434;-36
2022/08/11 10:10:21;;;;;;;4.77;4.30;;;28.30;69.90;;;;;;5091751;28;20418;-39
2022/08/11 10:12:51;;;;;;;4.63;3.90;;;28.40;71.40;;;;;;5091481;28;20422;-38
2022/08/11 10:15:33;;;;;;;4.23;3.93;;;28.50;69.90;;;;;;5091442;28;20427;-37
2022/08/11 10:20:57;;;;;;;4.50;4.20;;;28.70;63.60;;;;;;5089863;28;20426;-37
2022/08/11 10:28:58;;;;;;;8.30;4.93;;;28.70;63.70;;;;;;5068963;28;20969;-37
2022/08/11 10:34:09;;;;;;;4.57;4.10;;;28.80;64.20;;;;;;5091157;28;20434;-37
2022/08/11 10:36:49;;;;;;;5.70;4.37;;;28.90;62.90;;;;;;5090520;28;20823;-36
2022/08/11 10:39:19;;;;;;;5.10;4.20;;;28.90;64.30;;;;;;5090932;28;20426;-37
2022/08/11 10:44:37;;;;;;;4.30;4.00;;;29.10;64.90;;;;;;5090644;28;20422;-36
2022/08/11 10:51:11;;;;;;;4.37;4.07;;;29.20;64.60;;;;;;5090565;28;20749;-37
2022/08/11 11:00:57;;;;;;;4.90;4.50;;;29.50;60.60;;;;;;5090588;28;20423;-37
2022/08/11 11:03:28;;;;;;;7.60;4.77;;;29.50;59.50;;;;;;5090632;28;20423;-37
2022/08/11 11:06:02;;;;;;;5.80;4.73;;;29.50;58.70;;;;;;5090328;28;20931;-37
2022/08/11 11:11:17;;;;;;;4.90;4.40;;;29.60;60.00;;;;;;5089144;28;20423;-37
2022/08/11 11:19:23;;;;;;;5.23;4.73;;;29.70;58.50;;;;;;5087537;28;21147;-36
2022/08/11 11:21:53;;;;;;;6.40;5.20;;;29.80;60.00;;;;;;5090264;28;20827;-37
2022/08/11 11:24:53;;;;;;;4.97;4.60;;;29.80;59.30;;;;;;5090113;28;20426;-36
2022/08/11 11:27:46;;;;;;;4.70;4.30;;;29.90;59.40;;;;;;5089344;28;20453;-37
2022/08/11 11:30:14;;;;;;;5.00;4.60;;;29.90;58.30;;;;;;5090186;28;20521;-37
2022/08/11 11:33:03;;;;;;;8.03;4.87;;;29.90;54.80;;;;;;5089719;28;20415;-36
2022/08/11 11:35:52;;;;;;;5.77;5.20;;;30.00;54.50;;;;;;5089799;28;20542;-36
2022/08/11 11:38:18;;;;;;;4.77;4.37;;;29.90;55.30;;;;;;5089437;28;20406;-37
2022/08/11 11:41:23;;;;;;;4.87;4.47;;;30.00;55.90;;;;;;5089858;28;20463;-37
2022/08/11 11:43:32;;;;;;;5.00;4.60;;;30.00;57.40;;;;;;5080338;28;20418;-37
2022/08/11 11:45:58;;;;;;;5.83;4.40;;;30.10;55.40;;;;;;5089529;28;20427;-36
2022/08/11 11:48:27;;;;;;;5.17;4.73;;;30.10;55.00;;;;;;5089104;28;20944;-37
2022/08/11 11:50:54;;;;;;;5.13;4.80;;;30.20;56.90;;;;;;5089592;28;20468;-36
2022/08/11 11:53:21;;;;;;;4.50;4.10;;;30.30;54.40;;;;;;5088221;28;20422;-36
2022/08/11 11:55:47;;;;;;;5.03;4.50;;;30.30;55.20;;;;;;5089514;28;20422;-37
2022/08/11 12:01:18;;;;;;;8.60;4.80;;;30.30;55.90;;;;;;5089202;28;20642;-36
2022/08/11 12:03:48;;;;;;;7.23;4.70;;;30.40;57.20;;;;;;5089403;28;20448;-36
2022/08/11 12:06:15;;;;;;;4.83;4.00;;;30.50;54.10;;;;;;5089419;28;20446;-37
2022/08/11 12:08:43;;;;;;;5.00;4.60;;;30.50;54.50;;;;;;5088423;28;20426;-37
2022/08/11 12:13:59;;;;;;;5.50;4.60;;;30.50;54.20;;;;;;5089398;28;20414;-36
2022/08/11 12:16:25;;;;;;;6.70;4.50;;;30.50;54.50;;;;;;5089331;28;20450;-36
2022/08/11 12:18:55;;;;;;;5.93;4.43;;;30.50;52.90;;;;;;5088925;28;20438;-37
2022/08/11 12:21:23;;;;;;;5.37;4.33;;;30.60;52.50;;;;;;5087765;28;20486;-37
2022/08/11 12:29:25;;;;;;;7.17;4.70;;;30.40;54.20;;;;;;5089084;28;20422;-37
2022/08/11 12:31:53;;;;;;;4.97;4.67;;;30.50;51.60;;;;;;5089515;28;20522;-37
2022/08/11 12:34:20;;;;;;;5.70;4.40;;;30.50;53.20;;;;;;5087972;28;20445;-36
2022/08/11 12:36:50;;;;;;;4.33;4.03;;;30.60;51.40;;;;;;5088565;28;20469;-36
2022/08/11 12:45:26;;;;;;;7.43;4.50;;;30.60;52.50;;;;;;5089445;28;20510;-36
2022/08/11 12:53:28;;;;;;;4.80;4.40;;;30.80;54.70;;;;;;5089178;28;20804;-37
2022/08/11 12:58:49;;;;;;;4.80;4.40;;;30.90;53.50;;;;;;5088128;28;20528;-36
2022/08/11 13:06:45;;;;;;;4.80;4.30;;;30.90;54.90;;;;;;5088055;28;20423;-37
2022/08/11 13:09:12;;;;;;;4.90;4.50;;;31.00;52.60;;;;;;5088641;28;20437;-37
2022/08/11 13:14:26;;;;;;;6.90;4.93;;;30.90;50.00;;;;;;5092845;28;20854;-37
2022/08/11 13:19:37;;;;;;;6.67;4.67;;;30.90;51.40;;;;;;5090798;28;20430;-36
2022/08/11 13:22:06;;;;;;;5.03;4.63;;;30.80;52.20;;;;;;5092492;28;20494;-37
2022/08/11 13:24:35;;;;;;;5.00;4.60;;;30.80;52.70;;;;;;5086394;28;20909;-37
2022/08/11 13:27:02;;;;;;;4.70;4.40;;;30.80;53.10;;;;;;5091899;28;20430;-37
2022/08/11 13:29:28;;;;;;;5.80;4.93;;;30.90;51.80;;;;;;5091008;28;20482;-36
2022/08/11 13:31:58;;;;;;;5.43;4.90;;;30.90;49.50;;;;;;5092354;28;20433;-37
2022/08/11 13:34:27;;;;;;;4.50;4.17;;;30.90;48.70;;;;;;5092356;28;20774;-37
2022/08/11 13:36:55;;;;;;;5.50;5.00;;;30.90;49.40;;;;;;5091782;28;20499;-39
2022/08/11 13:39:24;;;;;;;5.07;4.67;;;30.80;48.80;;;;;;5092046;28;20803;-36
2022/08/11 13:41:50;;;;;;;5.10;4.70;;;30.70;48.00;;;;;;5092097;28;20511;-37
2022/08/11 13:44:17;;;;;;;5.30;4.90;;;30.70;48.20;;;;;;5087335;28;20513;-37
2022/08/11 13:46:43;;;;;;;7.40;4.70;;;30.70;48.80;;;;;;5091224;28;20196;-37
2022/08/11 13:49:10;;;;;;;5.03;4.63;;;30.70;48.40;;;;;;5091805;28;20514;-37
2022/08/11 13:51:39;;;;;;;5.03;4.67;;;30.60;48.50;;;;;;5091924;28;20438;-36
2022/08/11 13:54:19;;;;;;;6.10;5.13;;;30.70;48.40;;;;;;5091759;28;20430;-37
2022/08/11 13:56:51;;;;;;;4.63;4.23;;;30.60;48.20;;;;;;5091132;28;20477;-36
2022/08/11 13:59:19;;;;;;;5.50;4.50;;;30.70;49.70;;;;;;5091658;28;20721;-38
2022/08/11 14:01:52;;;;;;;4.73;4.33;;;30.80;51.50;;;;;;5091602;28;20479;-37
2022/08/11 14:04:44;;;;;;;5.63;5.13;;;30.80;49.00;;;;;;5091698;28;20450;-36
2022/08/11 14:07:13;;;;;;;5.53;4.60;;;30.90;49.30;;;;;;5091020;28;20466;-37
2022/08/11 14:09:43;;;;;;;5.00;4.60;;;30.90;49.10;;;;;;5091378;28;20525;-37
2022/08/11 14:15:24;;;;;;;4.40;4.10;;;30.90;47.10;;;;;;5091543;28;20784;-40
2022/08/11 14:18:02;;;;;;;5.23;4.83;;;30.90;48.30;;;;;;5090471;28;20462;-37
2022/08/11 14:22:05;;;;;;;4.90;4.60;;;30.90;49.30;;;;;;5089932;28;20509;-37
2022/08/11 14:23:40;;;;;;;4.83;4.33;;;30.90;48.40;;;;;;5090640;28;20434;-37
2022/08/11 14:26:25;;;;;;;4.97;4.53;;;31.00;49.10;;;;;;5090538;28;20491;-37
2022/08/11 14:29:04;;;;;;;4.73;4.37;;;31.10;47.90;;;;;;5090813;28;20433;-39
2022/08/11 14:31:33;;;;;;;4.33;3.93;;;31.10;47.60;;;;;;5090999;28;21018;-37
2022/08/11 14:34:02;;;;;;;7.23;4.70;;;31.10;48.50;;;;;;5091236;28;20426;-37
2022/08/11 14:36:39;;;;;;;5.23;4.70;;;31.00;49.30;;;;;;5090615;28;20481;-37
2022/08/11 14:39:11;;;;;;;5.13;4.50;;;31.00;48.10;;;;;;5089722;28;20454;-37
2022/08/11 14:47:14;;;;;;;5.00;4.60;;;30.90;46.80;;;;;;5089906;28;20422;-36
2022/08/11 14:49:42;;;;;;;6.63;4.23;;;30.80;46.70;;;;;;5090865;28;20865;-37
2022/08/11 14:52:14;;;;;;;5.13;4.63;;;30.80;47.30;;;;;;5089498;28;20930;-37
2022/08/11 14:57:31;;;;;;;4.73;4.33;;;30.80;47.90;;;;;;5089529;28;20937;-38
2022/08/11 15:00:01;;;;;;;4.90;4.40;;;30.70;47.70;;;;;;5090803;28;20522;-37
2022/08/11 15:05:12;;;;;;;8.43;4.53;;;30.70;47.10;;;;;;5090288;28;20442;-37
2022/08/11 15:07:39;;;;;;;6.80;4.33;;;30.70;48.20;;;;;;5089928;28;20434;-36
2022/08/11 15:10:07;;;;;;;4.80;4.40;;;30.60;47.00;;;;;;5090188;28;20539;-36
2022/08/11 15:12:35;;;;;;;5.10;4.60;;;30.60;46.80;;;;;;5090517;28;20501;-38
2022/08/11 15:17:53;;;;;;;6.40;5.33;;;30.60;48.30;;;;;;5089459;28;20470;-36
2022/08/11 15:25:54;;;;;;;5.77;4.60;;;30.60;46.50;;;;;;5089792;28;20418;-36
2022/08/11 15:39:29;;;;;;;6.03;5.63;;;30.40;46.80;;;;;;5088783;28;20481;-36
2022/08/11 15:47:56;;;;;;;4.90;4.50;;;30.30;47.40;;;;;;5088017;28;20458;-36
2022/08/11 15:50:29;;;;;;;5.80;5.30;;;30.20;46.70;;;;;;5089828;28;20988;-38
2022/08/11 15:53:03;;;;;;;5.10;4.70;;;30.20;47.20;;;;;;5089751;28;20434;-38
2022/08/11 15:55:33;;;;;;;6.93;5.03;;;30.20;47.70;;;;;;5088374;28;20445;-37
2022/08/11 16:06:30;;;;;;;5.87;5.23;;;30.00;45.70;;;;;;5090378;28;20430;-37
2022/08/11 16:09:02;;;;;;;4.77;4.37;;;30.10;46.20;;;;;;5092682;28;20425;-37
2022/08/11 16:11:29;;;;;;;5.40;4.70;;;30.00;47.00;;;;;;5086920;28;20426;-37
2022/08/11 16:16:41;;;;;;;5.57;5.07;;;29.90;46.20;;;;;;5088543;28;20474;-36
2022/08/11 16:19:09;;;;;;;5.03;4.63;;;29.90;46.30;;;;;;5087969;28;20513;-39
2022/08/11 16:21:39;;;;;;;6.20;4.90;;;29.80;46.50;;;;;;5089245;28;20434;-36
2022/08/11 16:24:11;;;;;;;6.20;5.60;;;29.80;46.80;;;;;;5087545;28;20423;-37
2022/08/11 16:26:41;;;;;;;5.80;5.40;;;29.80;47.00;;;;;;5088632;28;20442;-37
2022/08/11 16:29:09;;;;;;;5.87;5.37;;;29.80;47.30;;;;;;5088698;28;20503;-36
2022/08/11 16:31:37;;;;;;;5.40;4.90;;;29.80;46.90;;;;;;5086597;28;20435;-37
2022/08/11 16:34:04;;;;;;;5.80;4.67;;;29.70;46.40;;;;;;5097621;28;20768;-37
2022/08/11 16:39:17;;;;;;;6.17;5.30;;;29.70;45.90;;;;;;5083464;28;21351;-37
2022/08/11 16:47:18;;;;;;;7.23;4.40;;;29.60;46.10;;;;;;5092622;28;20418;-37
2022/08/11 16:49:54;;;;;;;6.23;4.70;;;29.60;46.00;;;;;;5093387;28;20422;-37
2022/08/11 16:52:23;;;;;;;5.80;4.87;;;29.50;46.20;;;;;;5093157;28;20437;-38
2022/08/11 16:54:49;;;;;;;5.30;4.80;;;29.40;46.60;;;;;;5091920;28;20448;-36
2022/08/11 17:00:11;;;;;;;5.90;4.87;;;29.40;46.60;;;;;;5093072;28;20975;-37
2022/08/11 17:14:12;;;;;;;6.80;5.00;;;29.20;47.10;;;;;;5092819;28;21134;-37
2022/08/11 17:16:39;;;;;;;5.90;5.30;;;29.10;47.20;;;;;;5091962;28;20562;-37
2022/08/11 17:19:12;;;;;;;5.80;5.30;;;29.00;47.30;;;;;;5090997;28;20449;-36
2022/08/11 17:24:43;;;;;;;5.33;4.70;;;29.00;46.80;;;;;;5086990;28;20937;-38
2022/08/11 17:27:15;;;;;;;5.80;5.20;;;29.00;46.60;;;;;;5091672;28;20517;-36
2022/08/11 17:29:51;;;;;;;5.50;5.10;;;29.00;47.40;;;;;;5092103;28;20482;-36
2022/08/11 17:35:29;;;;;;;6.17;5.67;;;28.90;47.20;;;;;;5092370;28;20430;-36
2022/08/11 17:38:13;;;;;;;5.20;4.90;;;28.80;47.60;;;;;;5091173;28;20466;-37
2022/08/11 17:49:11;;;;;;;7.23;5.60;;;28.60;48.40;;;;;;5090198;28;20904;-37
2022/08/11 18:00:00;;;;;;;5.33;5.03;;;28.50;48.30;;;;;;5091810;28;20433;-36
2022/08/11 18:05:25;;;;;;;6.63;5.23;;;28.40;48.60;;;;;;5091493;28;20436;-37
